A- A+ FrançaisEnglishEspañol中国

Services sur Internet Soldes sur Internet Des idées de cadeaux Météo Météo aéro

La météo à : Autours de vous Tarbes-Lourdes-PyrénéesCreil-Senlis Persan-Beaumont Le-Plessis-Belleville

La météo aéronautique pour les pilotes, la préparation du vol avec les METAR (METeorological Aerodrome Report, message d'observation des conditions météorologiques pour l'aviation) et Les TAF (Terminal Aerodrome Forecast : message de prévision à court terme des conditions météorologiques pour l'aviation). Et les autres ressources comme les VAC (Visual Approch Chart) et les NOTAM (Notice To Airman) pour préprer les vols.

Aéroport Lappeenranta (Finlande) / OACI EFLP/ IATA LPP

L'altitude de l'aéroport Lappeenranta est de 106 m = 348 ft. Il est situé à proximité de Lappeenranta (Finlande). La météo générale à 5 jours est disponible pour Lappeenranta situé à 1.3 km.

METAR de l'aéroport Lappeenranta - EFLP

EFLP 071050Z AUTO 18007KT 110V260 5000 -RA OVC005 05/04 Q0986

Décodage du METAR de l'aéroport Lappeenranta (FI)

METAR émis par EFLP le samedi 7 décembre 2019 à 10:50 heure TU. C'est un METAR généré automatiquement, il y a 24 minutes.

La visibilité est de 5 km = 3.1 sm.

La température est de 5°C = 41 °F et le point rosée est de 4°C = 39 °F . Ce qui correspond à 93% d'humidité relative.

Le QNH est de 986 hPa = 29.12 inHg

Vent de 7 kt = 13 km/h, orienté à 180°.

Nuages : Couverture nuageuse soudée à 500 ft = 150 mètres.

-RA

TAF de l'aéroport Lappeenranta - EFLP

EFLP 311545Z 3115/3120 24008KT 9999 BKN013

EFLP 311545Z 3115/3120 24008KT 9999 couverture nuageuse fragmentée à 013

Aéroport à proximité de Lappeenranta

Météo générale à 5 jours à Lappeenranta (1.3 km)Aéroport Immola (47 km)Aéroport Utti (67 km)Aéroport Selanpaa (72 km)Aéroport Kymi (86 km)Aéroport Wredeby (87 km)Aéroport Mikkeli (87 km)

VAC de l'aéroport Lappeenranta - EFLP

La carte d'approche à vue (VAC Visual Approah Chart) est fournie sans aucune garantie de son actualité. Le pilote est le seul responsable de la vérification de sa validité avant de l'utiliser opérationnellement pour préparer un vol ou l'utiliser lors de sa navigation.

VAC de EFLP

Vue aérienne de l'aéroport Lappeenranta

NOTAM de l'aéroport Lappeenranta

Les NOTAM sont fournis sans aucune garantie de leur actualité. Le pilote est le seul responsable de la vérification de sa validité avant de l'utiliser opérationnellement pour préparer un vol ou l'utiliser lors de sa navigation.

Pas de NOTAM

Sources des données